createdAt,value
2023-05-20T00:01:52.320Z,95980.84
2023-05-20T00:03:55.344Z,95800.81
2023-05-20T00:05:58.360Z,95970.88
2023-05-20T00:08:04.647Z,95973.56
2023-05-20T00:10:08.328Z,95974.38
2023-05-20T00:12:11.109Z,95976.00
2023-05-20T00:14:14.328Z,95970.06
2023-05-20T00:16:17.143Z,95976.81
2023-05-20T00:18:21.319Z,95982.72
2023-05-20T00:20:24.534Z,95977.88
2023-05-20T00:22:27.308Z,95976.53
2023-05-20T00:24:30.051Z,95973.31
2023-05-20T00:26:32.777Z,95972.50
2023-05-20T00:28:35.708Z,95973.56
2023-05-20T00:30:41.026Z,95975.16
2023-05-20T00:32:43.808Z,95660.25
2023-05-20T00:34:56.928Z,95966.66
2023-05-20T00:36:59.917Z,95964.41
2023-05-20T00:39:02.735Z,95958.03
2023-05-20T00:41:05.599Z,95963.13
2023-05-20T00:43:08.344Z,95963.13
2023-05-20T00:45:12.045Z,95964.28
2023-05-20T00:47:16.313Z,95961.13
2023-05-20T00:49:19.205Z,95956.31
2023-05-20T00:51:23.411Z,95916.34
2023-05-20T00:53:26.982Z,95959.69
2023-05-20T00:55:29.958Z,95962.38
2023-05-20T00:57:33.152Z,95955.75
2023-05-20T00:59:38.339Z,95951.53
2023-05-20T01:01:41.705Z,95955.03
2023-05-20T01:03:44.556Z,95946.22
2023-05-20T01:05:47.393Z,95952.16
2023-05-20T01:07:51.644Z,95930.47
2023-05-20T01:09:56.155Z,95946.97
2023-05-20T01:12:05.022Z,95900.94
2023-05-20T01:14:09.889Z,95937.00
2023-05-20T01:16:12.900Z,95937.69
2023-05-20T01:18:18.438Z,95943.81
2023-05-20T01:20:22.613Z,95941.34
2023-05-20T01:22:27.822Z,95936.28
2023-05-20T01:24:30.814Z,95940.00
2023-05-20T01:26:38.474Z,95942.25
2023-05-20T01:28:43.616Z,95941.38
2023-05-20T01:30:59.117Z,95933.56
2023-05-20T01:33:06.964Z,95936.81
2023-05-20T01:35:10.945Z,95938.88
2023-05-20T01:37:14.852Z,95929.59
2023-05-20T01:39:19.600Z,95928.97
2023-05-20T01:41:24.920Z,95904.69
2023-05-20T01:43:30.185Z,95928.22
2023-05-20T01:45:33.154Z,95933.00
2023-05-20T01:47:36.129Z,95926.31
2023-05-20T01:49:38.956Z,95925.63
2023-05-20T01:51:41.753Z,95923.63
2023-05-20T01:53:45.632Z,95926.28
2023-05-20T01:55:49.698Z,95926.25
2023-05-20T01:57:52.479Z,95932.06
2023-05-20T01:59:56.350Z,95926.75
2023-05-20T02:01:59.222Z,95877.63
2023-05-20T02:04:03.169Z,95922.00
2023-05-20T02:06:06.430Z,95924.44
2023-05-20T02:08:09.367Z,95916.28
2023-05-20T02:10:12.601Z,95913.53
2023-05-20T02:12:17.399Z,95924.09
2023-05-20T02:14:20.443Z,95899.81
2023-05-20T02:16:23.487Z,95927.91
2023-05-20T02:18:27.513Z,95761.50
2023-05-20T02:20:30.303Z,95930.00
2023-05-20T02:22:33.113Z,95931.13
2023-05-20T02:24:35.854Z,95921.78
2023-05-20T02:26:38.608Z,95824.09
2023-05-20T02:28:46.586Z,95936.03
2023-05-20T02:30:51.113Z,95935.34
2023-05-20T02:32:53.907Z,95913.03
2023-05-20T02:34:57.011Z,95730.53
2023-05-20T02:36:59.827Z,95922.75
2023-05-20T02:39:02.719Z,95921.13
2023-05-20T02:41:07.413Z,95910.50
2023-05-20T02:43:10.170Z,95911.94
2023-05-20T02:45:14.291Z,95907.47
2023-05-20T02:47:17.033Z,95923.50
2023-05-20T02:49:20.008Z,95916.59
2023-05-20T02:51:22.777Z,95916.78
2023-05-20T02:53:25.953Z,95850.50
2023-05-20T02:55:29.312Z,95916.78
2023-05-20T02:57:33.981Z,95900.34
2023-05-20T02:59:36.894Z,95919.78
2023-05-20T03:01:41.469Z,95923.00
2023-05-20T03:03:45.313Z,95920.06
2023-05-20T03:05:48.149Z,95923.84
2023-05-20T03:07:50.924Z,95932.50
2023-05-20T03:09:53.768Z,95971.28
2023-05-20T03:11:56.562Z,95928.66
2023-05-20T03:13:59.996Z,95931.78
2023-05-20T03:16:03.064Z,95938.28
2023-05-20T03:18:08.509Z,95946.38
2023-05-20T03:20:13.270Z,95931.00
2023-05-20T03:22:17.087Z,95926.34
2023-05-20T03:24:20.434Z,95922.53
2023-05-20T03:26:23.291Z,95930.38
2023-05-20T03:28:26.856Z,95926.75
2023-05-20T03:30:30.284Z,95923.50
2023-05-20T03:32:33.839Z,95926.19
2023-05-20T03:34:38.223Z,95797.13
2023-05-20T03:36:41.529Z,95918.94
2023-05-20T03:38:44.296Z,95930.53
2023-05-20T03:40:47.120Z,95921.88
2023-05-20T03:42:52.124Z,95921.41
2023-05-20T03:44:57.114Z,95938.09
2023-05-20T03:47:01.350Z,95928.97
2023-05-20T03:49:06.199Z,95932.81
2023-05-20T03:51:10.393Z,95928.50
2023-05-20T03:53:13.269Z,95936.31
2023-05-20T03:55:17.535Z,95926.09
2023-05-20T03:57:20.796Z,95929.09
2023-05-20T03:59:23.757Z,95927.16
2023-05-20T04:01:26.670Z,95930.84
2023-05-20T04:03:30.085Z,95909.75
2023-05-20T04:05:33.266Z,95929.00
2023-05-20T04:07:39.683Z,95930.94
2023-05-20T04:09:44.057Z,95927.94
2023-05-20T04:11:46.924Z,95928.31
2023-05-20T04:13:49.726Z,95929.94
2023-05-20T04:15:53.073Z,95927.31
2023-05-20T04:17:56.038Z,95912.81
2023-05-20T04:19:59.930Z,95916.63
2023-05-20T04:22:03.066Z,95900.09
2023-05-20T04:24:08.422Z,95860.31
2023-05-20T04:26:11.490Z,95911.16
2023-05-20T04:28:16.422Z,95899.88
2023-05-20T04:30:19.864Z,95910.13
2023-05-20T04:32:22.752Z,95903.59
2023-05-20T04:34:26.671Z,95913.88
2023-05-20T04:36:29.521Z,95913.16
2023-05-20T04:38:32.884Z,95821.00
2023-05-20T04:40:39.086Z,95908.84
2023-05-20T04:42:41.866Z,95913.66
2023-05-20T04:44:45.991Z,95906.72
2023-05-20T04:46:48.760Z,95907.81
2023-05-20T04:48:51.550Z,95907.31
2023-05-20T04:50:55.118Z,95862.34
2023-05-20T04:52:57.843Z,95894.38
2023-05-20T04:55:01.848Z,95872.19
2023-05-20T04:57:06.440Z,95885.94
2023-05-20T04:59:09.651Z,95918.28
2023-05-20T05:01:12.655Z,95920.19
2023-05-20T05:03:17.821Z,95915.84
2023-05-20T05:05:20.653Z,95909.31
2023-05-20T05:07:23.444Z,95906.31
2023-05-20T05:09:26.339Z,95904.25
2023-05-20T05:11:29.377Z,95887.53
2023-05-20T05:13:34.890Z,95898.19
2023-05-20T05:15:37.689Z,95903.31
2023-05-20T05:17:41.928Z,95821.78
2023-05-20T05:19:44.962Z,95897.28
2023-05-20T05:21:49.171Z,95894.09
2023-05-20T05:23:52.034Z,95908.13
2023-05-20T05:25:54.804Z,95907.09
2023-05-20T05:27:57.574Z,95902.00
2023-05-20T05:30:01.844Z,95893.03
2023-05-20T05:32:05.430Z,95890.91
2023-05-20T05:34:08.178Z,95890.69
2023-05-20T05:36:11.069Z,95894.75
2023-05-20T05:38:13.824Z,95900.69
2023-05-20T05:40:16.793Z,95900.44
2023-05-20T05:42:19.676Z,95895.06
2023-05-20T05:44:22.656Z,95788.97
2023-05-20T05:46:26.772Z,95888.91
2023-05-20T05:48:30.148Z,95888.34
2023-05-20T05:50:33.415Z,95891.63
2023-05-20T05:52:36.240Z,95764.41
2023-05-20T05:54:40.309Z,95881.63
2023-05-20T05:56:43.148Z,95894.31
2023-05-20T05:58:47.849Z,95895.44
2023-05-20T06:00:52.885Z,95812.75
2023-05-20T06:02:57.365Z,95897.03
2023-05-20T06:05:08.620Z,95887.88
2023-05-20T06:07:11.503Z,95892.19
2023-05-20T06:09:14.310Z,95893.56
2023-05-20T06:11:17.769Z,95893.81
2023-05-20T06:13:21.528Z,95885.19
2023-05-20T06:15:24.457Z,95894.91
2023-05-20T06:17:27.264Z,95799.56
2023-05-20T06:19:31.804Z,95874.13
2023-05-20T06:21:34.584Z,95880.03
2023-05-20T06:23:38.048Z,95825.25
2023-05-20T06:25:44.351Z,95875.44
2023-05-20T06:27:47.293Z,95871.94
2023-05-20T06:29:53.457Z,95869.53
2023-05-20T06:31:56.333Z,95868.41
2023-05-20T06:33:59.802Z,95873.22
2023-05-20T06:36:04.107Z,95877.28
2023-05-20T06:38:07.128Z,95870.25
2023-05-20T06:40:11.265Z,95875.41
2023-05-20T06:42:14.161Z,95865.06
2023-05-20T06:44:23.439Z,95871.53
2023-05-20T06:46:33.723Z,95877.72
2023-05-20T06:48:41.055Z,95874.94
2023-05-20T06:50:45.656Z,95872.03
2023-05-20T06:52:49.819Z,95864.78
2023-05-20T06:54:52.773Z,95865.94
2023-05-20T06:56:55.998Z,95863.41
2023-05-20T06:58:59.463Z,95870.94
2023-05-20T07:01:02.925Z,95858.50
2023-05-20T07:03:06.657Z,95873.06
2023-05-20T07:05:10.495Z,95860.59
2023-05-20T07:07:15.459Z,95868.44
2023-05-20T07:09:21.057Z,95867.38
2023-05-20T07:11:23.974Z,95791.03
2023-05-20T07:13:26.985Z,95857.19
2023-05-20T07:15:29.883Z,95850.59
2023-05-20T07:17:32.770Z,95852.03
2023-05-20T07:19:35.720Z,95786.16
2023-05-20T07:21:38.528Z,95864.72
2023-05-20T07:23:50.191Z,95864.97
2023-05-20T07:25:55.412Z,95859.53
2023-05-20T07:27:58.226Z,95861.41
2023-05-20T07:30:01.225Z,95863.94
2023-05-20T07:32:06.433Z,95854.50
2023-05-20T07:34:10.560Z,95855.22
2023-05-20T07:36:13.386Z,95851.59
2023-05-20T07:38:18.057Z,95846.47
2023-05-20T07:40:22.912Z,95835.75
2023-05-20T07:42:27.103Z,95834.63
2023-05-20T07:44:34.585Z,95830.28
2023-05-20T07:46:38.187Z,95835.75
2023-05-20T07:48:42.063Z,95833.47
2023-05-20T07:50:45.868Z,95606.31
2023-05-20T07:54:58.663Z,95830.94
2023-05-20T07:57:02.140Z,95826.19
2023-05-20T07:59:09.245Z,95791.19
2023-05-20T08:01:17.860Z,95817.38
2023-05-20T08:03:22.300Z,95827.00
2023-05-20T08:05:51.338Z,95769.63
2023-05-20T08:07:54.101Z,95820.44
2023-05-20T08:10:00.998Z,95825.22
2023-05-20T08:12:04.621Z,95817.03
2023-05-20T08:14:08.826Z,95829.88
2023-05-20T08:16:16.857Z,95790.56
2023-05-20T08:18:21.549Z,95835.91
2023-05-20T08:20:26.410Z,95847.63
2023-05-20T08:22:29.282Z,95850.78
2023-05-20T08:24:32.351Z,95835.41
2023-05-20T08:26:35.143Z,95843.31
2023-05-20T08:28:38.230Z,95841.16
2023-05-20T08:30:42.531Z,95847.31
2023-05-20T08:32:45.578Z,95844.75
2023-05-20T08:34:49.191Z,95851.28
2023-05-20T08:36:52.032Z,95817.81
2023-05-20T08:38:55.798Z,95844.75
2023-05-20T08:40:59.334Z,95837.28
2023-05-20T08:43:03.030Z,95835.59
2023-05-20T08:45:06.526Z,95835.00
2023-05-20T08:47:11.847Z,95828.69
2023-05-20T08:49:14.673Z,95837.94
2023-05-20T08:51:18.899Z,95840.50
2023-05-20T08:53:23.455Z,95836.38
2023-05-20T08:55:27.938Z,95819.31
2023-05-20T08:57:30.779Z,95823.22
2023-05-20T08:59:33.792Z,95825.78
2023-05-20T09:01:42.926Z,95828.81
2023-05-20T09:03:47.487Z,95820.38
2023-05-20T09:05:50.506Z,95816.56
2023-05-20T09:07:53.241Z,95805.69
2023-05-20T09:09:56.045Z,95823.78
2023-05-20T09:11:58.840Z,95815.94
2023-05-20T09:14:01.537Z,95814.81
2023-05-20T09:16:04.361Z,95832.03
2023-05-20T09:18:08.907Z,95834.28
2023-05-20T09:20:14.141Z,95743.41
2023-05-20T09:22:22.682Z,95809.50
2023-05-20T09:24:26.765Z,95773.13
2023-05-20T09:26:30.581Z,95835.91
2023-05-20T09:28:33.806Z,95788.44
2023-05-20T09:30:36.686Z,95690.75
2023-05-20T09:32:39.548Z,95798.38
2023-05-20T09:34:43.116Z,95805.38
2023-05-20T09:36:51.339Z,95811.94
2023-05-20T09:38:54.503Z,95783.72
2023-05-20T09:40:57.418Z,95732.72
2023-05-20T09:43:04.060Z,95805.38
2023-05-20T09:45:09.843Z,95800.91
2023-05-20T09:47:12.939Z,95811.44
2023-05-20T09:49:16.426Z,95796.25
2023-05-20T09:51:19.627Z,95797.97
2023-05-20T09:53:36.974Z,95726.66
2023-05-20T09:55:40.129Z,95799.00
2023-05-20T09:57:43.252Z,95808.72
2023-05-20T09:59:47.996Z,95804.59
2023-05-20T10:01:51.058Z,95764.31
2023-05-20T10:03:54.368Z,95798.59
2023-05-20T10:06:11.069Z,95797.25
2023-05-20T10:08:25.950Z,95793.19
2023-05-20T10:10:39.235Z,95779.53
2023-05-20T10:12:52.341Z,95796.09
2023-05-20T10:15:05.400Z,95766.28
2023-05-20T10:17:13.910Z,95778.50
2023-05-20T10:19:30.309Z,95783.59
2023-05-20T10:21:33.969Z,95756.97
2023-05-20T10:23:36.759Z,95766.13
2023-05-20T10:25:51.872Z,95764.53
2023-05-20T10:28:07.849Z,95765.06
2023-05-20T10:30:17.374Z,95784.94
2023-05-20T10:32:27.849Z,95781.22
2023-05-20T10:34:45.377Z,95718.31
2023-05-20T10:36:58.594Z,95773.03
2023-05-20T10:39:01.646Z,95740.88
2023-05-20T10:41:11.345Z,95774.31
2023-05-20T10:43:15.425Z,95777.97
2023-05-20T10:45:28.442Z,95767.94
2023-05-20T10:47:32.142Z,95759.34
2023-05-20T10:49:36.385Z,95761.63
2023-05-20T10:51:39.824Z,95770.06
2023-05-20T10:53:46.958Z,95753.00
2023-05-20T10:55:52.462Z,95757.09
2023-05-20T10:57:56.826Z,95754.03
2023-05-20T11:00:01.124Z,95768.19
2023-05-20T11:02:04.497Z,95756.66
2023-05-20T11:04:08.530Z,95749.72
2023-05-20T11:06:16.195Z,95742.19
2023-05-20T11:08:29.156Z,95740.00
2023-05-20T11:10:32.873Z,95738.81
2023-05-20T11:12:36.094Z,95706.97
2023-05-20T11:14:40.291Z,95731.06
2023-05-20T11:16:43.574Z,95728.84
2023-05-20T11:18:49.164Z,95738.19
2023-05-20T11:20:53.633Z,95726.47
2023-05-20T11:22:57.273Z,95741.44
2023-05-20T11:25:00.156Z,95745.66
2023-05-20T11:27:03.619Z,95735.16
2023-05-20T11:29:06.465Z,95739.94
2023-05-20T11:31:11.128Z,95740.66
2023-05-20T11:33:15.833Z,95731.84
2023-05-20T11:35:24.074Z,95730.16
2023-05-20T11:37:27.181Z,95726.78
2023-05-20T11:39:31.484Z,95724.13
2023-05-20T11:41:34.593Z,95722.78
2023-05-20T11:43:37.371Z,95719.34
2023-05-20T11:45:41.814Z,95725.94
2023-05-20T11:47:46.200Z,95717.06
2023-05-20T11:49:49.933Z,95721.06
2023-05-20T11:51:52.816Z,95715.66
2023-05-20T11:54:00.664Z,95689.31
2023-05-20T11:56:03.590Z,95710.59
2023-05-20T11:58:06.384Z,95693.41
2023-05-20T12:00:10.853Z,95713.41
2023-05-20T12:02:15.875Z,95709.59
2023-05-20T12:04:20.346Z,95590.13
2023-05-20T12:06:23.265Z,95700.38
2023-05-20T12:08:26.063Z,95706.22
2023-05-20T12:10:28.833Z,95703.00
2023-05-20T12:12:32.582Z,95701.75
2023-05-20T12:14:35.719Z,95696.78
2023-05-20T12:16:39.196Z,95685.50
2023-05-20T12:18:42.245Z,95697.06
2023-05-20T12:20:46.431Z,95696.59
2023-05-20T12:22:49.637Z,95691.25
2023-05-20T12:24:53.635Z,95665.09
2023-05-20T12:26:58.139Z,95688.00
2023-05-20T12:29:01.225Z,95543.75
2023-05-20T12:31:04.098Z,95690.69
2023-05-20T12:33:07.411Z,95686.41
2023-05-20T12:35:10.990Z,95689.41
2023-05-20T12:37:15.389Z,95685.50
2023-05-20T12:39:18.560Z,95684.25
2023-05-20T12:41:21.741Z,95678.41
2023-05-20T12:43:24.638Z,95674.22
2023-05-20T12:45:27.412Z,95581.41
2023-05-20T12:47:30.517Z,95662.34
2023-05-20T12:49:33.320Z,95650.84
2023-05-20T12:51:36.120Z,95664.91
2023-05-20T12:53:40.275Z,95637.91
2023-05-20T12:55:43.056Z,95606.53
2023-05-20T12:57:46.837Z,95657.09
2023-05-20T12:59:49.686Z,95608.00
2023-05-20T13:01:52.623Z,95658.28
2023-05-20T13:03:55.643Z,95657.34
2023-05-20T13:05:59.303Z,95649.16
2023-05-20T13:08:02.109Z,95621.38
2023-05-20T13:10:07.858Z,95658.69
2023-05-20T13:12:10.985Z,95599.03
2023-05-20T13:14:15.195Z,95593.78
2023-05-20T13:16:19.951Z,95659.06
2023-05-20T13:18:22.770Z,95596.06
2023-05-20T13:20:25.825Z,95657.84
2023-05-20T13:22:28.658Z,95660.06
2023-05-20T13:24:31.432Z,95657.06
2023-05-20T13:26:35.580Z,95651.19
2023-05-20T13:28:38.394Z,95650.72
2023-05-20T13:30:41.257Z,95645.75
2023-05-20T13:32:44.124Z,95646.28
2023-05-20T13:34:46.968Z,95643.63
2023-05-20T13:36:49.768Z,95639.25
2023-05-20T13:38:52.555Z,95640.50
2023-05-20T13:40:59.226Z,95630.09
2023-05-20T13:43:03.393Z,95587.50
2023-05-20T13:45:07.204Z,95631.66
2023-05-20T13:47:10.046Z,95621.84
2023-05-20T13:49:12.827Z,95624.97
2023-05-20T13:51:15.707Z,95621.34
2023-05-20T13:53:18.480Z,95625.41
2023-05-20T13:55:23.972Z,95624.81
2023-05-20T13:57:27.518Z,95621.94
2023-05-20T13:59:31.654Z,95618.50
2023-05-20T14:01:34.525Z,95621.19
2023-05-20T14:03:37.720Z,95611.69
2023-05-20T14:05:40.744Z,95599.09
2023-05-20T14:07:43.556Z,95609.25
2023-05-20T14:09:46.337Z,95588.34
2023-05-20T14:11:49.286Z,95580.53
2023-05-20T14:13:52.005Z,95608.06
2023-05-20T14:15:56.466Z,95605.66
2023-05-20T14:17:59.429Z,95600.38
2023-05-20T14:20:02.196Z,95596.50
2023-05-20T14:22:05.451Z,95606.50
2023-05-20T14:24:08.191Z,95594.38
2023-05-20T14:26:11.199Z,95597.56
2023-05-20T14:28:14.118Z,95588.78
2023-05-20T14:30:17.011Z,95589.94
2023-05-20T14:32:21.189Z,95588.41
2023-05-20T14:34:23.968Z,95591.31
2023-05-20T14:36:26.707Z,95586.09
2023-05-20T14:38:29.686Z,95557.91
2023-05-20T14:40:32.621Z,95582.09
2023-05-20T14:42:35.554Z,95578.50
2023-05-20T14:44:38.725Z,95579.25
2023-05-20T14:46:41.684Z,95581.84
2023-05-20T14:48:45.788Z,95584.59
2023-05-20T14:50:49.714Z,95572.00
2023-05-20T14:52:52.720Z,95418.53
2023-05-20T14:54:56.635Z,95574.59
2023-05-20T14:56:59.407Z,95554.25
2023-05-20T14:59:02.242Z,95527.31
2023-05-20T15:01:05.015Z,95579.63
2023-05-20T15:03:07.938Z,95561.19
2023-05-20T15:05:12.565Z,95587.09
2023-05-20T15:07:15.743Z,95560.59
2023-05-20T15:09:18.662Z,95256.22
2023-05-20T15:11:21.401Z,95573.50
2023-05-20T15:13:24.122Z,95582.13
2023-05-20T15:15:26.929Z,95581.41
2023-05-20T15:17:29.749Z,95582.22
2023-05-20T15:19:33.225Z,95588.50
2023-05-20T15:21:37.785Z,95592.41
2023-05-20T15:23:40.668Z,95592.50
2023-05-20T15:25:43.500Z,95600.97
2023-05-20T15:27:46.241Z,95564.09
2023-05-20T15:29:49.590Z,95557.41
2023-05-20T15:31:52.341Z,95599.78
2023-05-20T15:33:55.850Z,95608.41
2023-05-20T15:35:58.836Z,95606.13
2023-05-20T15:38:02.894Z,95610.38
2023-05-20T15:40:06.627Z,95551.97
2023-05-20T15:42:13.660Z,95602.00
2023-05-20T15:44:16.688Z,95600.88
2023-05-20T15:46:19.595Z,95612.09
2023-05-20T15:48:23.694Z,95620.56
2023-05-20T15:50:28.176Z,95605.47
2023-05-20T15:52:30.963Z,95608.56
2023-05-20T15:54:35.120Z,95603.72
2023-05-20T15:56:37.932Z,95597.75
2023-05-20T15:58:40.847Z,95604.88
2023-05-20T16:00:43.903Z,95585.03
2023-05-20T16:02:47.440Z,95596.72
2023-05-20T16:04:50.389Z,95601.88
2023-05-20T16:06:53.171Z,95466.28
2023-05-20T16:08:55.984Z,95590.38
2023-05-20T16:11:00.058Z,95593.28
2023-05-20T16:13:02.916Z,95586.69
2023-05-20T16:15:06.685Z,95592.50
2023-05-20T16:17:09.493Z,95585.41
2023-05-20T16:19:12.324Z,95584.16
2023-05-20T16:21:16.016Z,95584.41
2023-05-20T16:23:18.781Z,95582.81
2023-05-20T16:25:21.694Z,95580.25
2023-05-20T16:27:25.970Z,95574.19
2023-05-20T16:29:28.748Z,95573.78
2023-05-20T16:31:32.310Z,95575.91
2023-05-20T16:33:35.105Z,95568.47
2023-05-20T16:35:38.304Z,95574.06
2023-05-20T16:37:41.126Z,95231.03
2023-05-20T16:39:43.924Z,95571.25
2023-05-20T16:41:46.651Z,95531.13
2023-05-20T16:43:50.738Z,95581.38
2023-05-20T16:45:54.516Z,95580.78
2023-05-20T16:47:57.390Z,95579.13
2023-05-20T16:50:00.257Z,95551.22
2023-05-20T16:52:03.041Z,95588.94
2023-05-20T16:54:05.864Z,95591.69
2023-05-20T16:56:09.137Z,95584.19
2023-05-20T16:58:11.936Z,95559.38
2023-05-20T17:00:16.603Z,95575.44
2023-05-20T17:02:19.384Z,95597.78
2023-05-20T17:04:22.309Z,95601.31
2023-05-20T17:06:25.418Z,95618.97
2023-05-20T17:08:28.143Z,95592.19
2023-05-20T17:10:31.125Z,95594.94
2023-05-20T17:12:34.054Z,95589.25
2023-05-20T17:14:37.030Z,95559.44
2023-05-20T17:16:41.219Z,95602.97
2023-05-20T17:18:44.169Z,95602.16
2023-05-20T17:20:47.076Z,95605.34
2023-05-20T17:22:49.844Z,95561.56
2023-05-20T17:24:52.631Z,95601.69
2023-05-20T17:26:55.534Z,95605.50
2023-05-20T17:28:58.299Z,95606.31
2023-05-20T17:31:01.026Z,95608.59
2023-05-20T17:33:05.160Z,95614.25
2023-05-20T17:35:08.859Z,95613.00
2023-05-20T17:37:11.559Z,95614.56
2023-05-20T17:39:15.032Z,95617.69
2023-05-20T17:41:18.512Z,95614.88
2023-05-20T17:43:21.664Z,95617.00
2023-05-20T17:45:24.386Z,95619.34
2023-05-20T17:47:27.168Z,95619.09
2023-05-20T17:49:31.379Z,95618.03
2023-05-20T17:51:34.241Z,95614.81
2023-05-20T17:53:37.030Z,95612.94
2023-05-20T17:55:39.757Z,95613.72
2023-05-20T17:57:42.491Z,95492.16
2023-05-20T17:59:45.412Z,95616.56
2023-05-20T18:01:48.460Z,95624.09
2023-05-20T18:03:51.405Z,95620.72
2023-05-20T18:05:56.236Z,95617.53
2023-05-20T18:07:59.100Z,95614.81
2023-05-20T18:10:01.855Z,95603.88
2023-05-20T18:12:04.874Z,95611.59
2023-05-20T18:14:07.655Z,95609.84
2023-05-20T18:16:10.422Z,95587.53
2023-05-20T18:18:13.230Z,95604.50
2023-05-20T18:20:16.482Z,95611.91
2023-05-20T18:22:20.628Z,95591.84
2023-05-20T18:24:23.462Z,95611.41
2023-05-20T18:26:26.412Z,95610.34
2023-05-20T18:28:29.201Z,95613.88
2023-05-20T18:30:31.960Z,95586.31
2023-05-20T18:32:35.019Z,95536.84
2023-05-20T18:34:37.865Z,95597.56
2023-05-20T18:36:40.613Z,95606.75
2023-05-20T18:38:45.063Z,95510.13
2023-05-20T18:40:47.973Z,95604.00
2023-05-20T18:42:50.754Z,95610.56
2023-05-20T18:44:54.166Z,95621.41
2023-05-20T18:46:57.156Z,95615.97
2023-05-20T18:48:59.957Z,95547.16
2023-05-20T18:51:02.789Z,95612.78
2023-05-20T18:53:05.525Z,95607.41
2023-05-20T18:55:10.155Z,95611.59
2023-05-20T18:57:13.331Z,95602.59
2023-05-20T18:59:16.627Z,95566.22
2023-05-20T19:01:20.230Z,95604.56
2023-05-20T19:03:25.335Z,95606.50
2023-05-20T19:05:28.198Z,95538.75
2023-05-20T19:07:31.068Z,95604.06
2023-05-20T19:09:33.847Z,95607.88
2023-05-20T19:11:38.074Z,95612.22
2023-05-20T19:13:41.271Z,95611.22
2023-05-20T19:15:45.374Z,95609.44
2023-05-20T19:17:48.217Z,95615.00
2023-05-20T19:19:51.405Z,95611.47
2023-05-20T19:21:54.173Z,95619.44
2023-05-20T19:23:57.361Z,95629.19
2023-05-20T19:26:00.298Z,95633.28
2023-05-20T19:28:05.109Z,95623.53
2023-05-20T19:30:10.914Z,95615.84
2023-05-20T19:32:13.952Z,95639.66
2023-05-20T19:34:16.960Z,95630.09
2023-05-20T19:36:19.913Z,95556.25
2023-05-20T19:38:22.736Z,95646.75
2023-05-20T19:40:25.491Z,95637.66
2023-05-20T19:42:28.292Z,95637.88
2023-05-20T19:44:32.396Z,95639.81
2023-05-20T19:46:36.321Z,95604.91
2023-05-20T19:48:39.078Z,95645.72
2023-05-20T19:50:41.920Z,95644.91
2023-05-20T19:52:44.741Z,95642.53
2023-05-20T19:54:48.249Z,95640.13
2023-05-20T19:56:51.103Z,95632.69
2023-05-20T19:58:53.816Z,95630.16
2023-05-20T20:00:58.062Z,95637.09
2023-05-20T20:03:03.216Z,95639.91
2023-05-20T20:05:07.280Z,95547.59
2023-05-20T20:07:10.097Z,95638.13
2023-05-20T20:09:13.450Z,95637.91
2023-05-20T20:11:16.219Z,95638.50
2023-05-20T20:13:19.286Z,95637.72
2023-05-20T20:15:22.095Z,95632.06
2023-05-20T20:17:26.393Z,95632.56
2023-05-20T20:19:29.548Z,95659.25
2023-05-20T20:21:32.439Z,95626.56
2023-05-20T20:23:36.700Z,95627.44
2023-05-20T20:25:41.171Z,95627.03
2023-05-20T20:27:44.818Z,95544.59
2023-05-20T20:29:47.556Z,95611.56
2023-05-20T20:31:50.662Z,95636.53
2023-05-20T20:33:54.843Z,95627.25
2023-05-20T20:35:57.550Z,95632.69
2023-05-20T20:38:01.163Z,95629.66
2023-05-20T20:40:05.392Z,95640.22
2023-05-20T20:42:08.147Z,95635.91
2023-05-20T20:44:15.251Z,95628.25
2023-05-20T20:46:18.144Z,95574.34
2023-05-20T20:48:26.600Z,95624.03
2023-05-20T20:50:30.976Z,95625.44
2023-05-20T20:52:33.689Z,95620.41
2023-05-20T20:54:36.460Z,95626.34
2023-05-20T20:56:39.791Z,95632.38
2023-05-20T20:58:44.999Z,95623.44
2023-05-20T21:00:48.795Z,95629.56
2023-05-20T21:02:51.965Z,95623.22
2023-05-20T21:04:59.085Z,95631.47
2023-05-20T21:07:03.261Z,95621.31
2023-05-20T21:09:07.470Z,95618.81
2023-05-20T21:11:10.205Z,95620.81
2023-05-20T21:13:13.190Z,95618.00
2023-05-20T21:15:16.233Z,95620.00
2023-05-20T21:17:19.045Z,95612.56
2023-05-20T21:19:21.900Z,95611.47
2023-05-20T21:21:24.738Z,95607.72
2023-05-20T21:23:28.822Z,95559.88
2023-05-20T21:25:31.609Z,95595.16
2023-05-20T21:27:34.409Z,95598.06
2023-05-20T21:29:38.450Z,95597.25
2023-05-20T21:31:42.987Z,95559.25
2023-05-20T21:33:46.156Z,95591.41
2023-05-20T21:35:48.930Z,95593.44
2023-05-20T21:37:51.904Z,95591.22
2023-05-20T21:39:56.010Z,95592.03
2023-05-20T21:41:58.873Z,95584.19
2023-05-20T21:44:01.647Z,95566.19
2023-05-20T21:46:05.698Z,95581.16
2023-05-20T21:48:08.491Z,95579.38
2023-05-20T21:50:12.347Z,95584.66
2023-05-20T21:52:15.228Z,95575.00
2023-05-20T21:54:17.949Z,95577.94
2023-05-20T21:56:22.649Z,95545.84
2023-05-20T21:58:25.992Z,95555.16
2023-05-20T22:00:28.816Z,95542.88
2023-05-20T22:02:32.964Z,95540.50
2023-05-20T22:04:35.734Z,95570.22
2023-05-20T22:06:39.800Z,95561.03
2023-05-20T22:08:42.718Z,95576.53
2023-05-20T22:10:45.540Z,95444.44
2023-05-20T22:12:50.751Z,95573.03
2023-05-20T22:14:53.605Z,95578.03
2023-05-20T22:16:58.486Z,95565.69
2023-05-20T22:19:02.532Z,95571.00
2023-05-20T22:21:05.942Z,95567.88
2023-05-20T22:23:08.731Z,95545.03
2023-05-20T22:25:12.572Z,95565.16
2023-05-20T22:27:15.346Z,95531.84
2023-05-20T22:29:19.427Z,95560.84
2023-05-20T22:31:22.273Z,95566.16
2023-05-20T22:33:25.244Z,95558.38
2023-05-20T22:35:28.022Z,95568.03
2023-05-20T22:37:30.729Z,95537.22
2023-05-20T22:39:33.653Z,95454.16
2023-05-20T22:41:36.499Z,95545.06
2023-05-20T22:43:39.274Z,95555.53
2023-05-20T22:45:43.572Z,95558.50
2023-05-20T22:47:46.598Z,95552.88
2023-05-20T22:49:49.413Z,95557.06
2023-05-20T22:51:52.786Z,95555.97
2023-05-20T22:53:55.940Z,95554.34
2023-05-20T22:55:59.833Z,95389.47
2023-05-20T22:58:02.626Z,95525.81
2023-05-20T23:00:08.106Z,95551.81
2023-05-20T23:02:12.226Z,95547.50
2023-05-20T23:04:15.114Z,95539.44
2023-05-20T23:06:17.844Z,95543.09
2023-05-20T23:08:20.752Z,95522.75
2023-05-20T23:10:24.345Z,95537.97
2023-05-20T23:12:27.070Z,95537.69
2023-05-20T23:14:29.753Z,95536.06
2023-05-20T23:16:32.497Z,95452.94
2023-05-20T23:18:37.023Z,95531.63
2023-05-20T23:20:40.558Z,95534.88
2023-05-20T23:22:43.307Z,95537.91
2023-05-20T23:24:46.178Z,95534.47
2023-05-20T23:26:48.980Z,95524.38
2023-05-20T23:28:51.739Z,95529.03
2023-05-20T23:30:54.522Z,95524.72
2023-05-20T23:32:57.787Z,95530.38
2023-05-20T23:35:04.750Z,95535.78
2023-05-20T23:37:07.666Z,95530.66
2023-05-20T23:39:10.579Z,95397.84
2023-05-20T23:41:13.305Z,95521.75
2023-05-20T23:43:16.035Z,95479.66
2023-05-20T23:45:18.885Z,95469.03
2023-05-20T23:47:21.658Z,95527.53
2023-05-20T23:49:26.996Z,95523.34
2023-05-20T23:51:31.795Z,95511.38
2023-05-20T23:53:34.517Z,95497.56
2023-05-20T23:55:37.572Z,95517.78
2023-05-20T23:57:40.513Z,95516.75
2023-05-20T23:59:43.729Z,95519.56
